Time;durP1;ratioP1;P1;durP2;ratioP2;P2;SDS_P1;SDS_P2;PMS_P1;PMS_P2;Temp;Humidity;BMP_temperature;BMP_pressure;BME280_temperature;BME280_humidity;BME280_pressure;Samples;Min_cycle;Max_cycle;Signal;HPM_P1;HPM_P2
2022/01/27 02:51:43;;;;;;;;;;;-0.60;99.90;;;;;;5014697;28;19922;-82
2022/01/27 03:08:58;;;;;;;;;;;-0.60;99.90;;;;;;5058615;28;20376;-82
2022/01/27 05:02:38;;;;;;;;;;;-1.30;99.90;;;;;;5007231;28;20017;-82
2022/01/27 05:05:18;;;;;;;;;;;-1.20;99.90;;;;;;4995119;28;19926;-81
2022/01/27 05:07:54;;;;;;;;;;;-1.30;99.90;;;;;;4996588;28;20312;-82
2022/01/27 05:10:25;;;;;;;;;;;-1.20;99.90;;;;;;4981375;28;19925;-81
2022/01/27 05:12:55;;;;;;;;;;;-1.20;99.90;;;;;;5020954;28;20025;-83
2022/01/27 05:15:24;;;;;;;;;;;-1.20;99.90;;;;;;4984967;28;19930;-82
2022/01/27 05:17:52;;;;;;;;;;;-1.40;99.90;;;;;;4974333;28;19926;-82
2022/01/27 05:20:21;;;;;;;;;;;-1.40;99.90;;;;;;4992591;28;20311;-82
2022/01/27 05:22:48;;;;;;;;;;;-1.50;99.90;;;;;;4974143;28;20452;-82
2022/01/27 05:25:16;;;;;;;;;;;-1.40;99.90;;;;;;4995178;28;20399;-82
2022/01/27 05:27:46;;;;;;;;;;;-1.40;99.90;;;;;;5030926;28;19926;-81
2022/01/27 05:32:54;;;;;;;;;;;-1.40;99.90;;;;;;5018909;28;20021;-81
2022/01/27 05:38:32;;;;;;;;;;;-1.40;99.90;;;;;;5047228;28;19926;-82
2022/01/27 05:41:03;;;;;;;;;;;-1.40;99.90;;;;;;5020790;28;19925;-82
2022/01/27 05:43:31;;;;;;;;;;;-1.40;99.90;;;;;;5006204;28;19926;-81
2022/01/27 05:45:58;;;;;;;;;;;-1.40;99.90;;;;;;5005300;28;20005;-83
2022/01/27 05:48:27;;;;;;;;;;;-1.40;99.90;;;;;;4976899;28;20323;-82
2022/01/27 05:50:54;;;;;;;;;;;-1.50;99.90;;;;;;5019554;28;19926;-81
2022/01/27 05:53:22;;;;;;;;;;;-1.50;99.90;;;;;;4986178;28;20326;-82
2022/01/27 05:55:50;;;;;;;;;;;-1.50;99.90;;;;;;4978603;28;19930;-82
2022/01/27 05:58:34;;;;;;;;;;;-1.50;99.90;;;;;;5000920;28;19924;-82
2022/01/27 06:01:04;;;;;;;;;;;-1.50;99.90;;;;;;5069105;28;19930;-81
2022/01/27 06:03:31;;;;;;;;;;;-1.60;99.90;;;;;;4992240;28;19926;-82
2022/01/27 06:05:59;;;;;;;;;;;-1.50;99.90;;;;;;4999619;28;19936;-82
2022/01/27 06:08:29;;;;;;;;;;;-1.60;99.90;;;;;;5024472;28;19969;-82
2022/01/27 06:10:56;;;;;;;;;;;-1.60;99.90;;;;;;4999990;28;19925;-79
2022/01/27 06:13:23;;;;;;;;;;;-1.60;99.90;;;;;;4992026;28;19933;-79
2022/01/27 06:15:50;;;;;;;;;;;-1.60;99.90;;;;;;4980019;28;19926;-80
2022/01/27 06:18:18;;;;;;;;;;;-1.60;99.90;;;;;;4984171;28;19973;-80
2022/01/27 06:20:46;;;;;;;;;;;-1.60;99.90;;;;;;4994593;28;19957;-80
2022/01/27 06:23:13;;;;;;;;;;;-1.60;99.90;;;;;;4994898;28;19934;-79
2022/01/27 06:25:40;;;;;;;;;;;-1.60;99.90;;;;;;5000579;28;20357;-80
2022/01/27 06:28:07;;;;;;;;;;;-1.60;99.90;;;;;;5014068;28;19926;-80
2022/01/27 06:30:35;;;;;;;;;;;-1.60;99.90;;;;;;5002669;28;19933;-79
2022/01/27 06:33:02;;;;;;;;;;;-1.60;99.90;;;;;;4999364;28;19925;-80
2022/01/27 06:35:30;;;;;;;;;;;-1.60;99.90;;;;;;4976382;28;19953;-79
2022/01/27 06:37:57;;;;;;;;;;;-1.60;99.90;;;;;;4987527;28;20020;-80
2022/01/27 06:40:24;;;;;;;;;;;-1.60;99.90;;;;;;4971803;28;20602;-80
2022/01/27 06:42:51;;;;;;;;;;;-1.60;99.90;;;;;;4975234;28;20374;-79
2022/01/27 06:45:17;;;;;;;;;;;-1.60;99.90;;;;;;5019970;28;19926;-79
2022/01/27 06:47:44;;;;;;;;;;;-1.60;99.90;;;;;;5020103;28;19926;-79
2022/01/27 06:50:11;;;;;;;;;;;-1.60;99.90;;;;;;4980309;28;20388;-79
2022/01/27 06:52:41;;;;;;;;;;;-1.60;99.90;;;;;;5004786;28;19980;-79
2022/01/27 06:55:08;;;;;;;;;;;-1.60;99.90;;;;;;4999467;28;20461;-79
2022/01/27 06:57:35;;;;;;;;;;;-1.60;99.90;;;;;;4961346;28;19926;-79
2022/01/27 07:00:02;;;;;;;;;;;-1.60;99.90;;;;;;4990375;28;19926;-80
2022/01/27 07:02:29;;;;;;;;;;;-1.60;99.90;;;;;;4969366;28;19929;-79
2022/01/27 07:04:56;;;;;;;;;;;-1.60;99.90;;;;;;4972132;28;20414;-79
2022/01/27 07:07:23;;;;;;;;;;;-1.60;99.90;;;;;;4972064;28;20021;-80
2022/01/27 07:09:51;;;;;;;;;;;-1.60;99.90;;;;;;4993104;28;19926;-79
2022/01/27 07:12:18;;;;;;;;;;;-1.60;99.90;;;;;;4974394;28;19953;-79
2022/01/27 07:14:45;;;;;;;;;;;-1.60;99.90;;;;;;4990729;28;19932;-79
2022/01/27 07:17:14;;;;;;;;;;;-1.60;99.90;;;;;;4995337;28;19930;-79
2022/01/27 07:19:41;;;;;;;;;;;-1.60;99.90;;;;;;4973855;28;19971;-79
2022/01/27 07:22:07;;;;;;;;;;;-1.60;99.90;;;;;;5005219;28;19926;-80
2022/01/27 07:24:34;;;;;;;;;;;-1.60;99.90;;;;;;4974212;28;19948;-79
2022/01/27 07:27:03;;;;;;;;;;;-1.60;99.90;;;;;;4972219;28;20204;-79
2022/01/27 07:29:30;;;;;;;;;;;-1.60;99.90;;;;;;4985525;28;19926;-79
2022/01/27 07:31:57;;;;;;;;;;;-1.60;99.90;;;;;;4991650;28;19983;-80
2022/01/27 07:34:23;;;;;;;;;;;-1.60;99.90;;;;;;4984923;28;20403;-79
2022/01/27 07:36:54;;;;;;;;;;;-1.60;99.90;;;;;;5003777;28;19926;-80
2022/01/27 07:39:21;;;;;;;;;;;-1.70;99.90;;;;;;4993237;28;19925;-80
2022/01/27 07:41:49;;;;;;;;;;;-1.70;99.90;;;;;;4989990;28;19966;-80
2022/01/27 07:44:17;;;;;;;;;;;-1.70;99.90;;;;;;4976495;28;19940;-79
2022/01/27 07:46:44;;;;;;;;;;;-1.80;99.90;;;;;;4991572;28;19987;-79
2022/01/27 07:49:11;;;;;;;;;;;-1.70;99.90;;;;;;4992540;28;19926;-80
2022/01/27 07:51:38;;;;;;;;;;;-1.80;99.90;;;;;;4993314;28;19995;-78
2022/01/27 07:54:05;;;;;;;;;;;-1.80;99.90;;;;;;4969734;28;19926;-79
2022/01/27 07:56:32;;;;;;;;;;;-1.80;99.90;;;;;;4980399;28;20385;-80
2022/01/27 07:58:59;;;;;;;;;;;-1.70;99.90;;;;;;4981238;28;19932;-79
2022/01/27 08:01:34;;;;;;;;;;;-1.70;99.90;;;;;;4977171;28;19930;-80
2022/01/27 08:04:01;;;;;;;;;;;-1.80;99.90;;;;;;4997814;28;19941;-79
2022/01/27 08:06:27;;;;;;;;;;;-1.80;99.90;;;;;;4993719;28;19926;-79
2022/01/27 08:08:54;;;;;;;;;;;-1.80;99.90;;;;;;4969342;28;19934;-78
2022/01/27 08:11:21;;;;;;;;;;;-1.80;99.90;;;;;;4988003;28;19926;-78
2022/01/27 08:13:48;;;;;;;;;;;-1.80;99.90;;;;;;4985254;28;19940;-78
2022/01/27 08:16:15;;;;;;;;;;;-1.80;99.90;;;;;;5017189;28;20360;-79
2022/01/27 08:18:43;;;;;;;;;;;-1.90;99.90;;;;;;5013342;28;19924;-79
2022/01/27 08:21:10;;;;;;;;;;;-1.80;99.90;;;;;;4970088;28;19980;-78
2022/01/27 08:23:40;;;;;;;;;;;-1.80;99.90;;;;;;4986085;28;19926;-78
2022/01/27 08:26:08;;;;;;;;;;;-1.80;99.90;;;;;;4990950;28;20506;-79
2022/01/27 08:28:43;;;;;;;;;;;-1.80;99.90;;;;;;4974105;28;19932;-80
2022/01/27 08:31:11;;;;;;;;;;;-1.70;99.90;;;;;;4991897;28;19926;-79
2022/01/27 08:33:39;;;;;;;;;;;-1.70;99.90;;;;;;5008256;28;19933;-79
2022/01/27 08:36:08;;;;;;;;;;;-1.80;99.90;;;;;;4984442;28;19932;-79
2022/01/27 08:38:43;;;;;;;;;;;-1.80;99.90;;;;;;4999346;28;19934;-80
2022/01/27 08:41:10;;;;;;;;;;;-1.80;99.90;;;;;;4996754;28;20481;-80
2022/01/27 08:43:37;;;;;;;;;;;-1.70;99.90;;;;;;4995501;28;19926;-79
2022/01/27 08:46:05;;;;;;;;;;;-1.80;99.90;;;;;;4968724;28;19937;-79
2022/01/27 08:48:33;;;;;;;;;;;-1.70;99.90;;;;;;5009258;28;19929;-78
2022/01/27 08:51:01;;;;;;;;;;;-1.80;99.90;;;;;;5009010;28;19934;-79
2022/01/27 08:53:30;;;;;;;;;;;-1.80;99.90;;;;;;4994033;28;20410;-78
2022/01/27 08:55:58;;;;;;;;;;;-1.80;99.90;;;;;;4992125;28;19934;-78
2022/01/27 08:58:25;;;;;;;;;;;-1.80;99.90;;;;;;4975075;28;20017;-78
2022/01/27 09:00:52;;;;;;;;;;;-1.80;99.90;;;;;;4973720;28;19934;-79
2022/01/27 09:03:29;;;;;;;;;;;;;;;;;;;;;
2022/01/27 09:05:59;;;;;;;;;;;-1.70;99.90;;;;;;5002459;28;19968;-78
2022/01/27 09:08:27;;;;;;;;;;;-1.70;99.90;;;;;;4981678;28;20024;-79
2022/01/27 09:10:55;;;;;;;;;;;-1.70;99.90;;;;;;4990802;28;19930;-78
2022/01/27 09:13:22;;;;;;;;;;;-1.70;99.90;;;;;;4974954;28;19937;-79
2022/01/27 09:15:50;;;;;;;;;;;-1.70;99.90;;;;;;4970914;28;20181;-79
2022/01/27 09:18:17;;;;;;;;;;;-1.70;99.90;;;;;;4989411;28;19936;-78
2022/01/27 09:20:45;;;;;;;;;;;-1.70;99.90;;;;;;4981413;28;20396;-79
2022/01/27 09:23:14;;;;;;;;;;;-1.70;99.90;;;;;;4996258;28;19926;-81
2022/01/27 09:25:44;;;;;;;;;;;-1.70;99.90;;;;;;4989911;28;20398;-79
2022/01/27 09:28:13;;;;;;;;;;;-1.70;99.90;;;;;;4997020;28;20560;-79
2022/01/27 09:30:41;;;;;;;;;;;-1.60;99.90;;;;;;4981811;28;19944;-79
2022/01/27 09:33:10;;;;;;;;;;;-1.60;99.90;;;;;;4987054;28;19930;-79
2022/01/27 09:35:37;;;;;;;;;;;-1.60;99.90;;;;;;4988940;28;19936;-78
2022/01/27 09:38:04;;;;;;;;;;;-1.70;99.90;;;;;;4989514;28;19926;-79
2022/01/27 09:40:33;;;;;;;;;;;-1.60;99.90;;;;;;5018919;28;19977;-78
2022/01/27 09:43:00;;;;;;;;;;;-1.60;99.90;;;;;;4983523;28;20013;-80
2022/01/27 09:45:29;;;;;;;;;;;-1.60;99.90;;;;;;4990193;28;19933;-79
2022/01/27 09:48:00;;;;;;;;;;;-1.60;99.90;;;;;;5028085;28;19926;-77
2022/01/27 09:50:36;;;;;;;;;;;-1.60;99.90;;;;;;4988280;28;19930;-78
2022/01/27 09:53:04;;;;;;;;;;;-1.60;99.90;;;;;;4994284;28;19934;-79
2022/01/27 09:55:31;;;;;;;;;;;-1.60;99.90;;;;;;4987606;28;19926;-79
2022/01/27 09:58:01;;;;;;;;;;;-1.50;99.90;;;;;;4986968;28;20007;-78
2022/01/27 10:00:29;;;;;;;;;;;-1.50;99.90;;;;;;4986525;28;20410;-79
2022/01/27 10:03:04;;;;;;;;;;;-1.50;99.90;;;;;;4966557;28;19933;-78
2022/01/27 10:05:31;;;;;;;;;;;-1.50;99.90;;;;;;4987805;28;19996;-78
2022/01/27 10:08:02;;;;;;;;;;;-1.50;99.90;;;;;;4987857;28;19930;-79
2022/01/27 10:10:29;;;;;;;;;;;-1.50;99.90;;;;;;4990291;28;20009;-79
2022/01/27 10:12:58;;;;;;;;;;;-1.50;99.90;;;;;;4993739;28;19930;-78
2022/01/27 10:15:25;;;;;;;;;;;-1.50;99.90;;;;;;4997756;28;20026;-79
2022/01/27 10:18:07;;;;;;;;;;;-1.50;99.90;;;;;;4988753;28;20376;-78
2022/01/27 10:20:34;;;;;;;;;;;-1.50;99.90;;;;;;4993879;28;19941;-77
2022/01/27 10:23:08;;;;;;;;;;;-1.50;99.90;;;;;;4989844;28;19932;-79
2022/01/27 10:25:36;;;;;;;;;;;-1.40;99.90;;;;;;4997110;28;19936;-77
2022/01/27 10:28:22;;;;;;;;;;;-1.40;99.90;;;;;;4992304;28;19933;-78
2022/01/27 10:30:54;;;;;;;;;;;-1.40;99.90;;;;;;4979749;28;19926;-79
2022/01/27 10:33:22;;;;;;;;;;;-1.40;99.90;;;;;;4999678;28;19925;-78
2022/01/27 10:35:49;;;;;;;;;;;-1.40;99.90;;;;;;4979529;28;20600;-78
2022/01/27 10:38:18;;;;;;;;;;;-1.40;99.90;;;;;;4989877;28;20296;-77
2022/01/27 10:40:46;;;;;;;;;;;-1.40;99.90;;;;;;5013317;28;19956;-78
2022/01/27 10:43:14;;;;;;;;;;;-1.30;99.90;;;;;;4975251;28;19941;-79
2022/01/27 10:45:56;;;;;;;;;;;-1.30;99.90;;;;;;5001791;28;20285;-79
2022/01/27 10:48:28;;;;;;;;;;;-1.30;99.90;;;;;;4978149;28;19932;-79
2022/01/27 10:51:01;;;;;;;;;;;-1.20;99.90;;;;;;4969456;28;19994;-78
2022/01/27 10:53:49;;;;;;;;;;;-1.20;99.90;;;;;;5030844;28;19946;-78
2022/01/27 10:56:17;;;;;;;;;;;-1.20;99.90;;;;;;4986991;28;20386;-79
2022/01/27 10:58:45;;;;;;;;;;;-1.10;99.90;;;;;;4985698;28;19928;-78
2022/01/27 11:01:11;;;;;;;;;;;-1.00;99.90;;;;;;5015840;28;20303;-78
2022/01/27 11:03:50;;;;;;;;;;;-0.90;99.90;;;;;;4992940;28;19932;-78
2022/01/27 11:06:16;;;;;;;;;;;-0.90;99.90;;;;;;5047634;28;19937;-78
2022/01/27 11:08:43;;;;;;;;;;;-0.80;99.90;;;;;;4995578;28;19926;-79
2022/01/27 11:11:10;;;;;;;;;;;-0.80;99.90;;;;;;4986050;28;20659;-79
2022/01/27 11:13:38;;;;;;;;;;;-0.80;99.90;;;;;;4990751;28;19925;-79
2022/01/27 11:16:11;;;;;;;;;;;-0.70;99.90;;;;;;4993608;28;19926;-79
2022/01/27 11:18:38;;;;;;;;;;;-0.70;99.90;;;;;;5018626;28;19928;-79
2022/01/27 11:21:12;;;;;;;;;;;-0.70;99.90;;;;;;4982133;28;19929;-79
2022/01/27 11:26:28;;;;;;;;;;;-0.60;99.90;;;;;;4984406;28;19926;-79
2022/01/27 11:28:58;;;;;;;;;;;-0.60;99.90;;;;;;4991103;28;19929;-79
2022/01/27 11:31:43;;;;;;;;;;;-0.60;99.90;;;;;;4974304;28;19927;-79
2022/01/27 11:34:11;;;;;;;;;;;-0.50;99.90;;;;;;4985600;28;19965;-79
2022/01/27 11:36:59;;;;;;;;;;;-0.50;99.90;;;;;;4995126;28;19933;-78
2022/01/27 11:39:46;;;;;;;;;;;-0.40;99.90;;;;;;5010461;28;19928;-78
2022/01/27 11:42:13;;;;;;;;;;;-0.40;99.90;;;;;;4990605;28;19981;-78
2022/01/27 11:44:43;;;;;;;;;;;-0.40;99.90;;;;;;5008027;28;19957;-80
2022/01/27 11:47:20;;;;;;;;;;;-0.40;99.90;;;;;;4996212;28;19997;-79
2022/01/27 11:49:55;;;;;;;;;;;-0.40;99.90;;;;;;5001332;28;20018;-79
2022/01/27 11:52:26;;;;;;;;;;;-0.40;99.90;;;;;;5002387;28;19933;-78
2022/01/27 11:54:53;;;;;;;;;;;-0.30;99.90;;;;;;4994073;28;19938;-78
2022/01/27 11:57:35;;;;;;;;;;;-0.30;99.90;;;;;;5007670;28;19977;-78
2022/01/27 12:00:09;;;;;;;;;;;-0.30;99.90;;;;;;4988109;28;19973;-79
2022/01/27 12:02:57;;;;;;;;;;;-0.20;99.90;;;;;;5003735;28;19935;-79
2022/01/27 12:05:24;;;;;;;;;;;-0.20;99.90;;;;;;4996355;28;19930;-79
2022/01/27 12:08:10;;;;;;;;;;;-0.10;99.90;;;;;;5004299;28;19933;-79
2022/01/27 12:10:44;;;;;;;;;;;-0.10;99.90;;;;;;4977016;28;19925;-79
2022/01/27 12:13:26;;;;;;;;;;;-0.10;99.90;;;;;;5006968;28;19930;-78
2022/01/27 12:16:11;;;;;;;;;;;0.00;99.90;;;;;;4972727;28;20411;-78
2022/01/27 12:18:39;;;;;;;;;;;0.00;99.90;;;;;;4998598;28;19931;-78
2022/01/27 12:21:21;;;;;;;;;;;0.10;99.90;;;;;;5011926;28;19936;-79
2022/01/27 12:24:02;;;;;;;;;;;0.10;99.90;;;;;;4969202;28;19956;-79
2022/01/27 12:39:57;;;;;;;;;;;0.20;99.90;;;;;;5121976;27;19926;-78
2022/01/27 12:42:29;;;;;;;;;;;0.70;99.90;;;;;;5123063;27;19958;-78
2022/01/27 12:44:57;;;;;;;;;;;0.80;99.90;;;;;;5097537;27;19978;-78
2022/01/27 12:47:24;;;;;;;;;;;0.70;99.90;;;;;;5107004;27;19983;-78
2022/01/27 12:50:01;;;;;;;;;;;0.70;99.90;;;;;;5124373;27;20418;-79
2022/01/27 12:52:32;;;;;;;;;;;0.80;99.90;;;;;;5097610;28;19932;-81
2022/01/27 12:55:00;;;;;;;;;;;0.80;99.90;;;;;;5120529;27;19958;-80
2022/01/27 12:57:28;;;;;;;;;;;0.80;99.90;;;;;;5114607;27;19985;-81
2022/01/27 12:59:56;;;;;;;;;;;0.80;99.90;;;;;;5125210;27;20446;-81
2022/01/27 13:02:24;;;;;;;;;;;0.90;99.90;;;;;;5116294;27;19986;-81
2022/01/27 13:04:53;;;;;;;;;;;0.90;99.90;;;;;;5118896;27;19981;-80
2022/01/27 13:07:21;;;;;;;;;;;0.90;99.90;;;;;;5113132;27;20298;-81
2022/01/27 13:09:53;;;;;;;;;;;1.00;99.90;;;;;;5119981;27;19935;-81
2022/01/27 13:12:26;;;;;;;;;;;1.00;99.90;;;;;;5125935;27;20332;-81
2022/01/27 13:14:59;;;;;;;;;;;1.10;99.90;;;;;;5096577;28;19923;-80
2022/01/27 13:17:32;;;;;;;;;;;1.20;99.90;;;;;;5120678;27;20555;-81
2022/01/27 13:20:10;;;;;;;;;;;1.30;99.90;;;;;;5123594;27;19932;-82
2022/01/27 13:22:44;;;;;;;;;;;1.50;99.90;;;;;;5118233;27;19987;-81
2022/01/27 13:25:11;;;;;;;;;;;1.50;99.90;;;;;;5123754;27;20438;-81
2022/01/27 13:27:39;;;;;;;;;;;1.40;99.90;;;;;;5124221;27;19924;-80
2022/01/27 13:30:07;;;;;;;;;;;1.50;99.90;;;;;;5119570;27;19931;-81
2022/01/27 13:32:34;;;;;;;;;;;1.40;99.90;;;;;;5125301;27;19932;-80
2022/01/27 13:35:01;;;;;;;;;;;1.40;99.90;;;;;;5124320;27;20285;-80
2022/01/27 13:37:28;;;;;;;;;;;1.40;99.90;;;;;;5115613;27;19942;-81
2022/01/27 13:42:53;;;;;;;;;;;1.40;99.90;;;;;;5102167;27;20620;-81
2022/01/27 13:45:21;;;;;;;;;;;1.40;99.90;;;;;;5091478;28;19931;-81
2022/01/27 13:47:48;;;;;;;;;;;1.50;99.90;;;;;;5107432;27;20397;-81
2022/01/27 13:50:16;;;;;;;;;;;1.50;99.90;;;;;;5090489;28;20387;-81
2022/01/27 13:52:44;;;;;;;;;;;1.50;99.90;;;;;;5096819;28;19984;-82
2022/01/27 13:55:12;;;;;;;;;;;1.50;99.90;;;;;;5112045;27;19928;-82
2022/01/27 13:57:48;;;;;;;;;;;1.60;99.90;;;;;;5107054;27;19927;-81
2022/01/27 14:00:21;;;;;;;;;;;1.60;99.90;;;;;;5083958;28;19938;-81
2022/01/27 14:02:52;;;;;;;;;;;1.60;99.90;;;;;;5086127;28;19935;-81
2022/01/27 14:05:20;;;;;;;;;;;1.60;99.90;;;;;;5106276;27;20399;-81
2022/01/27 14:07:50;;;;;;;;;;;1.60;99.90;;;;;;5083012;27;19939;-81
2022/01/27 14:10:19;;;;;;;;;;;1.70;99.90;;;;;;5105000;28;20387;-81
2022/01/27 14:12:47;;;;;;;;;;;1.70;99.90;;;;;;5102386;28;19935;-80
2022/01/27 14:15:28;;;;;;;;;;;1.70;99.90;;;;;;5095640;28;19931;-82
2022/01/27 14:18:00;;;;;;;;;;;1.70;99.90;;;;;;5089870;28;20009;-82
2022/01/27 14:20:30;;;;;;;;;;;1.70;99.90;;;;;;5088425;27;19924;-81
2022/01/27 14:23:14;;;;;;;;;;;1.80;99.90;;;;;;5106774;27;20302;-81
2022/01/27 14:25:48;;;;;;;;;;;1.80;99.90;;;;;;5088600;28;19931;-82
2022/01/27 14:28:15;;;;;;;;;;;1.90;99.90;;;;;;5088584;27;19923;-81
2022/01/27 14:30:43;;;;;;;;;;;1.90;99.90;;;;;;5093192;28;19947;-81
2022/01/27 14:33:10;;;;;;;;;;;1.90;99.90;;;;;;5100350;27;20027;-81
2022/01/27 14:35:37;;;;;;;;;;;1.90;99.90;;;;;;5081503;28;20346;-81
2022/01/27 14:38:04;;;;;;;;;;;1.90;99.90;;;;;;5103552;27;19946;-81
2022/01/27 14:40:32;;;;;;;;;;;2.00;99.90;;;;;;5084158;28;19924;-82
2022/01/27 14:43:02;;;;;;;;;;;2.00;99.90;;;;;;5095780;28;19931;-80
2022/01/27 14:45:29;;;;;;;;;;;2.00;99.90;;;;;;5082979;28;20049;-82
2022/01/27 14:48:02;;;;;;;;;;;2.00;99.90;;;;;;5093524;27;20022;-81
2022/01/27 14:50:29;;;;;;;;;;;2.00;99.90;;;;;;5101155;27;19932;-81
2022/01/27 14:53:02;;;;;;;;;;;2.00;99.90;;;;;;5098591;27;19939;-82
2022/01/27 14:55:32;;;;;;;;;;;2.00;99.90;;;;;;5101573;28;19950;-81
2022/01/27 14:57:59;;;;;;;;;;;2.10;99.90;;;;;;5097927;27;19947;-81
2022/01/27 15:00:26;;;;;;;;;;;2.10;99.90;;;;;;5105154;28;19995;-82
2022/01/27 15:02:53;;;;;;;;;;;2.10;99.90;;;;;;5108253;27;19932;-82
2022/01/27 15:05:24;;;;;;;;;;;2.10;99.90;;;;;;5083702;28;19930;-81
2022/01/27 15:07:55;;;;;;;;;;;2.10;99.90;;;;;;5104580;27;19938;-81
2022/01/27 15:10:23;;;;;;;;;;;2.10;99.90;;;;;;5083561;28;19924;-81
2022/01/27 15:12:51;;;;;;;;;;;2.10;99.90;;;;;;5082315;28;19928;-81
2022/01/27 15:20:49;;;;;;;;;;;2.10;99.90;;;;;;5084824;28;19946;-81
2022/01/27 15:23:20;;;;;;;;;;;2.10;99.90;;;;;;5101281;28;19939;-82
2022/01/27 15:25:48;;;;;;;;;;;2.10;99.90;;;;;;5109036;27;19928;-81
2022/01/27 15:28:16;;;;;;;;;;;2.10;99.90;;;;;;5105011;27;19924;-82
2022/01/27 15:30:43;;;;;;;;;;;2.10;99.90;;;;;;5098250;28;20475;-81
2022/01/27 15:33:11;;;;;;;;;;;2.10;99.90;;;;;;5099928;27;19930;-81
2022/01/27 15:35:38;;;;;;;;;;;2.10;99.90;;;;;;5101985;28;19924;-81
2022/01/27 15:38:07;;;;;;;;;;;2.10;99.90;;;;;;5107196;27;19934;-80
2022/01/27 15:40:35;;;;;;;;;;;2.10;99.90;;;;;;5108168;27;19928;-82
2022/01/27 15:43:02;;;;;;;;;;;2.10;99.90;;;;;;5102727;27;19927;-81
2022/01/27 15:45:30;;;;;;;;;;;2.10;99.90;;;;;;5108134;27;19973;-82
2022/01/27 15:47:57;;;;;;;;;;;2.10;99.90;;;;;;5086585;28;19930;-81
2022/01/27 15:50:24;;;;;;;;;;;2.10;99.90;;;;;;5093682;27;19953;-82
2022/01/27 15:52:52;;;;;;;;;;;2.10;99.90;;;;;;5108545;27;19953;-82
2022/01/27 15:55:21;;;;;;;;;;;2.10;99.90;;;;;;5109881;28;20335;-82
2022/01/27 15:57:48;;;;;;;;;;;2.10;99.90;;;;;;5097221;28;19924;-81
2022/01/27 16:00:16;;;;;;;;;;;2.10;99.90;;;;;;5096506;27;19938;-81
2022/01/27 16:02:46;;;;;;;;;;;2.10;99.90;;;;;;5096420;28;19959;-80
2022/01/27 16:05:14;;;;;;;;;;;2.10;99.90;;;;;;5096835;28;20021;-80
2022/01/27 16:07:41;;;;;;;;;;;2.10;99.90;;;;;;5096934;28;19935;-82
2022/01/27 16:10:08;;;;;;;;;;;2.20;99.90;;;;;;5088465;28;20038;-81
2022/01/27 16:12:41;;;;;;;;;;;2.10;99.90;;;;;;5096145;28;19950;-80
2022/01/27 16:15:08;;;;;;;;;;;2.10;99.90;;;;;;5095298;28;19961;-82
2022/01/27 16:17:36;;;;;;;;;;;2.10;99.90;;;;;;5087003;28;19924;-82
2022/01/27 16:20:03;;;;;;;;;;;2.10;99.90;;;;;;5077775;28;19928;-82
2022/01/27 16:22:30;;;;;;;;;;;2.10;99.90;;;;;;5098522;28;20461;-80
2022/01/27 16:24:57;;;;;;;;;;;2.10;99.90;;;;;;5096321;28;20046;-82
2022/01/27 16:27:24;;;;;;;;;;;2.10;99.90;;;;;;5098445;28;20616;-82
2022/01/27 16:29:53;;;;;;;;;;;2.10;99.90;;;;;;5105609;28;19931;-81
2022/01/27 16:32:20;;;;;;;;;;;2.00;99.90;;;;;;5102436;28;19934;-81
2022/01/27 16:34:47;;;;;;;;;;;2.10;99.90;;;;;;5099521;28;20350;-81
2022/01/27 16:37:16;;;;;;;;;;;2.00;99.90;;;;;;5094632;28;20450;-81
2022/01/27 16:39:43;;;;;;;;;;;2.00;99.90;;;;;;5077990;28;20413;-80
2022/01/27 16:42:10;;;;;;;;;;;2.10;99.90;;;;;;5106183;28;19959;-82
2022/01/27 16:44:37;;;;;;;;;;;2.00;99.90;;;;;;5094229;28;20003;-82
2022/01/27 16:47:06;;;;;;;;;;;2.00;99.90;;;;;;5076622;28;19928;-82
2022/01/27 16:49:33;;;;;;;;;;;2.00;99.90;;;;;;5099764;28;19927;-81
2022/01/27 16:52:00;;;;;;;;;;;2.00;99.90;;;;;;5096325;28;19979;-82
2022/01/27 16:54:27;;;;;;;;;;;2.30;99.90;;;;;;5084762;28;20015;-81
2022/01/27 16:56:54;;;;;;;;;;;2.50;99.90;;;;;;5100348;28;19936;-80
2022/01/27 16:59:21;;;;;;;;;;;2.60;99.90;;;;;;5078637;28;20035;-81
2022/01/27 17:01:48;;;;;;;;;;;2.60;99.90;;;;;;5099803;28;19932;-80
2022/01/27 17:04:22;;;;;;;;;;;2.60;99.90;;;;;;5109865;28;19923;-82
2022/01/27 17:06:49;;;;;;;;;;;2.60;99.90;;;;;;5104230;28;20440;-81
2022/01/27 17:09:16;;;;;;;;;;;2.60;99.90;;;;;;5085817;28;19931;-81
2022/01/27 17:11:43;;;;;;;;;;;2.60;99.90;;;;;;5098946;28;20295;-81
2022/01/27 17:14:12;;;;;;;;;;;2.60;99.90;;;;;;5110113;28;20372;-81
2022/01/27 17:16:39;;;;;;;;;;;2.60;99.90;;;;;;5086256;27;20337;-81
2022/01/27 17:19:08;;;;;;;;;;;2.60;99.90;;;;;;5105155;27;19939;-82
2022/01/27 17:21:38;;;;;;;;;;;2.60;99.90;;;;;;5099660;27;19932;-82
2022/01/27 17:24:05;;;;;;;;;;;2.60;99.90;;;;;;5104778;27;19974;-80
2022/01/27 17:26:33;;;;;;;;;;;2.60;99.90;;;;;;5091600;28;19927;-81
2022/01/27 17:28:59;;;;;;;;;;;2.60;99.90;;;;;;5101490;28;19924;-82
2022/01/27 17:31:26;;;;;;;;;;;2.70;99.90;;;;;;5111560;27;20330;-82
2022/01/27 17:33:53;;;;;;;;;;;2.60;99.90;;;;;;5114498;27;19987;-81
2022/01/27 17:36:20;;;;;;;;;;;2.60;99.90;;;;;;5115291;27;19940;-82
2022/01/27 17:38:49;;;;;;;;;;;2.60;99.90;;;;;;5081865;28;20018;-82
2022/01/27 17:41:26;;;;;;;;;;;2.60;99.90;;;;;;5097674;27;19932;-81
2022/01/27 17:43:59;;;;;;;;;;;2.70;99.90;;;;;;5112750;27;20028;-80
2022/01/27 17:46:26;;;;;;;;;;;2.60;99.90;;;;;;5105236;28;19923;-81
2022/01/27 17:48:53;;;;;;;;;;;2.60;99.90;;;;;;5089828;28;20039;-81
2022/01/27 17:51:24;;;;;;;;;;;2.60;99.90;;;;;;5105193;28;19928;-82
2022/01/27 17:53:52;;;;;;;;;;;2.60;99.90;;;;;;5108381;27;19935;-81
2022/01/27 17:56:19;;;;;;;;;;;2.60;99.90;;;;;;5085168;28;19932;-82
2022/01/27 17:58:46;;;;;;;;;;;2.60;99.90;;;;;;5104589;28;19936;-81
2022/01/27 18:01:14;;;;;;;;;;;2.60;99.90;;;;;;5102956;27;20022;-81
2022/01/27 18:03:41;;;;;;;;;;;2.50;99.90;;;;;;5106588;27;20388;-81
2022/01/27 18:06:08;;;;;;;;;;;2.50;99.90;;;;;;5110938;27;19924;-81
2022/01/27 18:08:38;;;;;;;;;;;2.50;99.90;;;;;;5098972;27;19930;-81
2022/01/27 18:11:08;;;;;;;;;;;2.50;99.90;;;;;;5086459;28;19924;-82
2022/01/27 18:13:35;;;;;;;;;;;2.50;99.90;;;;;;5106795;27;19932;-82
2022/01/27 18:16:03;;;;;;;;;;;2.50;99.90;;;;;;5107549;27;19928;-81
2022/01/27 18:18:30;;;;;;;;;;;2.50;99.90;;;;;;5085816;28;19931;-81
2022/01/27 18:21:02;;;;;;;;;;;2.50;99.90;;;;;;5085934;28;19932;-82
2022/01/27 18:23:31;;;;;;;;;;;2.50;99.90;;;;;;5091474;28;19932;-82
2022/01/27 18:25:58;;;;;;;;;;;2.50;99.90;;;;;;5108223;27;19942;-82
2022/01/27 18:28:27;;;;;;;;;;;2.50;99.90;;;;;;5119680;28;19970;-82
2022/01/27 18:30:54;;;;;;;;;;;2.50;99.90;;;;;;5107374;27;19954;-82
2022/01/27 18:33:21;;;;;;;;;;;2.50;99.90;;;;;;5096123;28;21189;-82
2022/01/27 18:35:48;;;;;;;;;;;2.50;99.90;;;;;;5113860;27;20033;-82
2022/01/27 18:38:15;;;;;;;;;;;2.50;99.90;;;;;;5096862;27;20396;-82
2022/01/27 18:40:42;;;;;;;;;;;2.40;99.90;;;;;;5114020;27;19975;-81
2022/01/27 18:43:09;;;;;;;;;;;2.50;99.90;;;;;;5114501;27;20054;-81
2022/01/27 18:45:38;;;;;;;;;;;2.40;99.90;;;;;;5110614;27;19975;-82
2022/01/27 18:48:08;;;;;;;;;;;2.40;99.90;;;;;;5119882;27;19976;-81
2022/01/27 18:50:35;;;;;;;;;;;2.40;99.90;;;;;;5121686;27;19990;-82
2022/01/27 18:53:02;;;;;;;;;;;2.40;99.90;;;;;;5108679;27;19927;-80
2022/01/27 18:55:29;;;;;;;;;;;2.40;99.90;;;;;;5109975;27;20022;-82
2022/01/27 18:57:56;;;;;;;;;;;2.40;99.90;;;;;;5099881;28;19924;-82
2022/01/27 19:00:23;;;;;;;;;;;2.40;99.90;;;;;;5092815;28;20019;-82
2022/01/27 19:02:51;;;;;;;;;;;2.40;99.90;;;;;;5080793;28;20449;-82
2022/01/27 19:05:18;;;;;;;;;;;2.40;99.90;;;;;;5109916;27;19923;-81
2022/01/27 19:07:45;;;;;;;;;;;2.40;99.90;;;;;;5083093;28;19932;-82
2022/01/27 19:10:13;;;;;;;;;;;2.40;99.90;;;;;;5106887;27;19932;-82
2022/01/27 19:12:40;;;;;;;;;;;2.40;99.90;;;;;;5108674;27;20019;-82
2022/01/27 19:15:07;;;;;;;;;;;2.40;99.90;;;;;;5087087;27;20329;-82
2022/01/27 19:17:35;;;;;;;;;;;2.40;99.90;;;;;;5093860;27;19924;-82
2022/01/27 19:20:06;;;;;;;;;;;2.40;99.90;;;;;;5087145;28;20039;-81
2022/01/27 19:22:33;;;;;;;;;;;2.40;99.90;;;;;;5113406;27;20326;-81
2022/01/27 19:25:01;;;;;;;;;;;2.40;99.90;;;;;;5088751;28;19931;-82
2022/01/27 19:27:28;;;;;;;;;;;2.40;99.90;;;;;;5106412;27;19930;-82
2022/01/27 19:29:57;;;;;;;;;;;2.40;99.90;;;;;;5077938;27;19978;-82
2022/01/27 19:32:25;;;;;;;;;;;2.40;99.90;;;;;;5112107;27;19924;-82
2022/01/27 19:34:52;;;;;;;;;;;2.30;99.90;;;;;;5086523;27;20394;-82
2022/01/27 19:37:23;;;;;;;;;;;2.40;99.90;;;;;;5103002;27;20368;-81
2022/01/27 19:39:50;;;;;;;;;;;2.40;99.90;;;;;;5095809;27;20436;-81
2022/01/27 19:42:17;;;;;;;;;;;2.40;99.90;;;;;;5090513;28;19924;-81
2022/01/27 19:44:44;;;;;;;;;;;2.40;99.90;;;;;;5115328;27;20474;-81
2022/01/27 19:47:11;;;;;;;;;;;2.30;99.90;;;;;;5108963;27;19928;-82
2022/01/27 19:49:39;;;;;;;;;;;2.30;99.90;;;;;;5112965;27;19923;-80
2022/01/27 19:52:08;;;;;;;;;;;2.30;99.90;;;;;;5104344;27;19989;-81
2022/01/27 19:54:39;;;;;;;;;;;2.30;99.90;;;;;;5108372;27;20011;-82
2022/01/27 19:57:06;;;;;;;;;;;2.30;99.90;;;;;;5110054;27;20387;-82
2022/01/27 19:59:34;;;;;;;;;;;2.30;99.90;;;;;;5086662;28;19928;-82
2022/01/27 20:02:01;;;;;;;;;;;2.30;99.90;;;;;;5090035;27;19932;-82